Airport Name : Woensdrecht

Other Name : Woensdrecht

ICAO : EHWO

IATA : WOE

FAA :

Latitude : 51.449092

Longitude : 4.342031

Country : Netherlands

Local Date and Time : 07 Mar 2021 15:01

 

TAF (Terminal Aerodrome Forecast)

 

METAR (METeorological Aerodrome Report)

EHWO 071355Z AUTO 36005KT 290V050 9999 FEW039 06/M03 Q1024 BLU

EHWO 071325Z AUTO 03009KT 290V070 9999 BKN040 06/M03 Q1025 BLU

EHWO 071255Z AUTO 02006KT 310V090 9999 NCD 06/M03 Q1025 BLU

EHWO 071225Z AUTO VRB07KT 9999 OVC035 06/M02 Q1025 BLU

EHWO 071155Z AUTO VRB06KT 9999 BKN036 06/M02 Q1026 BLU

EHWO 071125Z AUTO 04006KT 290V060 9999 NCD 05/M03 Q1026 BLU

EHWO 071055Z AUTO 06004KT 360V130 9999 FEW031 05/M02 Q1026 BLU

EHWO 071025Z AUTO 09007KT 050V140 9999 FEW028 05/M02 Q1026 BLU

To Charter a Jet Click here.